Terminal Aerodrome Forecast
Issued by NWS

Home | Current Version | Previous Version | Text Only | Print | Product List | Glossary On
Versions: 1 2 3 4 5 6 7 8 9 10 11 12 13
000
FTUS46 KOTX 251135
TAFPUW
TAF
KPUW 251135Z 2512/2612 09007KT P6SM FEW100
     FM251900 26005KT P6SM SCT100 SCT250
     FM252300 29006KT P6SM BKN100 OVC200
     FM260300 28007KT P6SM -SHRA VCTS BKN100CB OVC150=

USA.gov is the U.S. government's official web portal to all federal, state and local government web resources and services.